createdAt,value
2018-05-27T00:01:27.474Z,12.49
2018-05-27T00:03:55.750Z,12.42
2018-05-27T00:06:24.003Z,12.53
2018-05-27T00:08:53.338Z,12.57
2018-05-27T00:11:21.595Z,12.47
2018-05-27T00:13:50.660Z,12.71
2018-05-27T00:16:18.903Z,12.58
2018-05-27T00:18:47.155Z,12.43
2018-05-27T00:21:16.183Z,12.37
2018-05-27T00:23:44.452Z,12.32
2018-05-27T00:26:12.705Z,12.58
2018-05-27T00:28:41.731Z,12.46
2018-05-27T00:31:09.987Z,12.39
2018-05-27T00:33:39.015Z,12.33
2018-05-27T00:36:07.263Z,12.34
2018-05-27T00:38:36.375Z,12.34
2018-05-27T00:41:04.634Z,12.38
2018-05-27T00:43:33.666Z,12.44
2018-05-27T00:46:02.585Z,12.43
2018-05-27T00:48:30.852Z,12.39
2018-05-27T00:50:59.117Z,12.31
2018-05-27T00:54:00.210Z,12.18
2018-05-27T00:56:29.259Z,12.07
2018-05-27T00:58:57.511Z,12.09
2018-05-27T01:01:26.632Z,11.95
2018-05-27T01:03:54.899Z,11.85
2018-05-27T01:06:23.181Z,11.80
2018-05-27T01:08:51.430Z,11.88
2018-05-27T01:11:20.468Z,11.91
2018-05-27T01:13:48.723Z,11.78
2018-05-27T01:16:17.755Z,11.72
2018-05-27T01:18:46.983Z,11.64
2018-05-27T01:21:15.246Z,11.63
2018-05-27T01:23:43.494Z,11.58
2018-05-27T01:26:11.763Z,11.61
2018-05-27T01:28:40.869Z,11.58
2018-05-27T01:31:09.916Z,11.53
2018-05-27T01:33:38.167Z,11.59
2018-05-27T01:36:06.435Z,11.63
2018-05-27T01:38:34.730Z,11.60
2018-05-27T01:41:03.005Z,11.54
2018-05-27T01:43:32.047Z,11.47
2018-05-27T01:46:00.380Z,11.49
2018-05-27T01:48:28.656Z,11.39
2018-05-27T01:50:57.759Z,11.41
2018-05-27T01:53:26.017Z,11.33
2018-05-27T01:55:55.065Z,11.28
2018-05-27T01:58:23.312Z,11.23
2018-05-27T02:00:52.859Z,11.22
2018-05-27T02:03:21.121Z,11.22
2018-05-27T02:05:49.401Z,11.17
2018-05-27T02:08:17.661Z,11.11
2018-05-27T02:10:46.767Z,11.13
2018-05-27T02:13:15.039Z,11.17
2018-05-27T02:15:44.073Z,11.05
2018-05-27T02:18:12.323Z,10.99
2018-05-27T02:20:40.601Z,11.01
2018-05-27T02:23:09.706Z,10.92
2018-05-27T02:25:37.980Z,10.92
2018-05-27T02:28:07.005Z,10.86
2018-05-27T02:30:35.422Z,11.25
2018-05-27T02:33:04.059Z,11.25
2018-05-27T02:35:32.464Z,10.96
2018-05-27T02:38:00.716Z,10.82
2018-05-27T02:40:29.757Z,10.75
2018-05-27T02:42:58.015Z,10.72
2018-05-27T02:45:26.271Z,10.77
2018-05-27T02:47:55.287Z,10.81
2018-05-27T02:50:23.547Z,10.87
2018-05-27T02:52:52.583Z,10.92
2018-05-27T02:55:20.851Z,10.67
2018-05-27T02:57:49.111Z,10.63
2018-05-27T03:00:18.156Z,10.59
2018-05-27T03:02:46.551Z,10.52
2018-05-27T03:05:16.439Z,10.47
2018-05-27T03:07:44.711Z,10.40
2018-05-27T03:10:12.971Z,10.49
2018-05-27T03:12:42.001Z,10.41
2018-05-27T03:15:10.265Z,10.39
2018-05-27T03:17:38.533Z,10.40
2018-05-27T03:20:07.555Z,10.35
2018-05-27T03:22:35.827Z,10.25
2018-05-27T03:25:04.099Z,10.22
2018-05-27T03:27:32.364Z,10.18
2018-05-27T03:30:01.381Z,10.21
2018-05-27T03:32:29.651Z,10.27
2018-05-27T03:34:58.659Z,10.37
2018-05-27T03:37:27.979Z,10.39
2018-05-27T03:39:56.226Z,10.45
2018-05-27T03:42:25.339Z,10.49
2018-05-27T03:44:53.593Z,10.68
2018-05-27T03:47:22.614Z,10.61
2018-05-27T03:49:50.883Z,10.59
2018-05-27T03:52:19.907Z,10.58
2018-05-27T03:54:48.166Z,10.54
2018-05-27T03:57:17.195Z,10.58
2018-05-27T03:59:45.459Z,10.55
2018-05-27T04:02:13.832Z,10.57
2018-05-27T04:05:03.296Z,10.55
2018-05-27T04:07:51.426Z,10.67
2018-05-27T04:10:20.452Z,10.80
2018-05-27T04:12:48.733Z,10.95
2018-05-27T04:15:16.993Z,11.12
2018-05-27T04:17:45.252Z,11.36
2018-05-27T04:20:14.266Z,11.71
2018-05-27T04:22:43.290Z,11.66
2018-05-27T04:25:11.550Z,11.72
2018-05-27T04:27:39.815Z,11.83
2018-05-27T04:30:08.847Z,12.02
2018-05-27T04:32:37.121Z,12.21
2018-05-27T04:35:05.369Z,12.38
2018-05-27T04:37:34.647Z,12.55
2018-05-27T04:40:03.692Z,12.77
2018-05-27T04:42:31.968Z,13.12
2018-05-27T04:45:01.003Z,13.47
2018-05-27T04:47:29.266Z,13.78
2018-05-27T04:49:57.527Z,14.33
2018-05-27T04:52:26.569Z,16.67
2018-05-27T04:54:54.827Z,18.82
2018-05-27T04:57:23.093Z,19.54
2018-05-27T04:59:51.347Z,20.11
2018-05-27T05:02:20.463Z,20.83
2018-05-27T05:04:49.489Z,23.17
2018-05-27T05:07:18.692Z,23.81
2018-05-27T05:09:46.960Z,24.79
2018-05-27T05:12:15.236Z,25.28
2018-05-27T05:14:43.487Z,24.44
2018-05-27T05:17:12.503Z,25.37
2018-05-27T05:19:40.770Z,25.77
2018-05-27T05:22:09.806Z,25.87
2018-05-27T05:24:38.080Z,26.52
2018-05-27T05:27:06.356Z,25.82
2018-05-27T05:29:34.624Z,25.92
2018-05-27T05:32:03.111Z,26.61
2018-05-27T05:34:31.388Z,27.54
2018-05-27T05:37:00.410Z,28.10
2018-05-27T05:39:29.503Z,28.42
2018-05-27T05:41:57.770Z,27.12
2018-05-27T05:44:26.797Z,25.72
2018-05-27T05:46:55.042Z,27.39
2018-05-27T05:49:24.062Z,28.54
2018-05-27T05:51:52.319Z,29.37
2018-05-27T05:54:21.360Z,28.38
2018-05-27T05:56:49.620Z,28.52
2018-05-27T05:59:17.875Z,28.63
2018-05-27T06:01:46.135Z,29.84
2018-05-27T06:04:15.173Z,28.95
2018-05-27T06:06:43.424Z,28.35
2018-05-27T06:09:12.467Z,29.80
2018-05-27T06:11:42.349Z,31.13
2018-05-27T06:14:11.388Z,30.08
2018-05-27T06:16:39.674Z,30.15
2018-05-27T06:19:07.930Z,30.64
2018-05-27T06:21:36.195Z,31.57
2018-05-27T06:24:04.465Z,30.04
2018-05-27T06:26:33.487Z,29.64
2018-05-27T06:29:01.764Z,31.61
2018-05-27T06:31:30.012Z,33.36
2018-05-27T06:33:59.047Z,32.86
2018-05-27T06:36:27.315Z,34.10
2018-05-27T06:38:55.582Z,32.29
2018-05-27T06:41:24.611Z,29.69
2018-05-27T06:43:54.938Z,32.22
2018-05-27T06:46:23.214Z,32.27
2018-05-27T06:48:51.475Z,32.43
2018-05-27T06:51:20.541Z,34.85
2018-05-27T06:53:48.767Z,33.63
2018-05-27T06:56:17.033Z,33.36
2018-05-27T06:58:46.060Z,31.15
2018-05-27T07:01:14.314Z,32.89
2018-05-27T07:03:42.590Z,32.52
2018-05-27T07:06:11.698Z,31.11
2018-05-27T07:08:39.953Z,30.38
2018-05-27T07:11:08.978Z,29.85
2018-05-27T07:13:37.234Z,31.51
2018-05-27T07:16:06.271Z,31.88
2018-05-27T07:18:34.531Z,31.95
2018-05-27T07:21:03.631Z,32.43
2018-05-27T07:23:31.901Z,31.94
2018-05-27T07:26:01.764Z,32.80
2018-05-27T07:28:30.024Z,31.79
2018-05-27T07:30:58.287Z,30.91
2018-05-27T07:33:27.399Z,30.25
2018-05-27T07:35:55.668Z,27.73
2018-05-27T07:38:26.007Z,27.12
2018-05-27T07:40:54.274Z,27.33
2018-05-27T07:43:23.291Z,27.70
2018-05-27T07:45:51.554Z,27.09
2018-05-27T07:48:19.810Z,27.20
2018-05-27T07:50:48.847Z,27.03
2018-05-27T07:53:17.536Z,26.97
2018-05-27T07:55:45.802Z,26.57
2018-05-27T07:58:14.130Z,26.17
2018-05-27T08:00:43.834Z,25.91
2018-05-27T08:03:12.183Z,25.96
2018-05-27T08:05:40.460Z,26.20
2018-05-27T08:08:09.479Z,25.81
2018-05-27T08:10:39.071Z,25.97
2018-05-27T08:13:07.330Z,25.97
2018-05-27T08:15:36.476Z,25.89
2018-05-27T08:18:04.734Z,26.26
2018-05-27T08:20:32.986Z,26.42
2018-05-27T08:23:02.028Z,26.03
2018-05-27T08:25:30.291Z,26.23
2018-05-27T08:27:59.311Z,26.81
2018-05-27T08:30:27.588Z,27.26
2018-05-27T08:32:56.563Z,27.57
2018-05-27T08:35:24.835Z,28.32
2018-05-27T08:37:53.860Z,29.67
2018-05-27T08:40:22.136Z,30.24
2018-05-27T08:42:53.263Z,31.48
2018-05-27T08:45:22.290Z,34.00
2018-05-27T08:47:50.547Z,34.64
2018-05-27T08:50:18.839Z,34.55
2018-05-27T08:52:47.099Z,35.32
2018-05-27T08:55:17.375Z,35.18
2018-05-27T08:57:45.636Z,36.38
2018-05-27T09:00:13.970Z,32.50
2018-05-27T09:02:42.994Z,33.60
2018-05-27T09:05:12.027Z,32.46
2018-05-27T09:07:40.284Z,34.33
2018-05-27T09:10:08.539Z,34.91
2018-05-27T09:12:37.576Z,33.03
2018-05-27T09:15:05.845Z,34.71
2018-05-27T09:17:34.116Z,34.83
2018-05-27T09:20:02.366Z,35.60
2018-05-27T09:22:31.408Z,36.22
2018-05-27T09:24:59.690Z,33.73
2018-05-27T09:27:27.950Z,36.08
2018-05-27T09:29:56.791Z,35.40
2018-05-27T09:32:25.060Z,35.83
2018-05-27T09:34:53.326Z,36.07
2018-05-27T09:37:21.587Z,36.08
2018-05-27T09:39:49.852Z,35.22
2018-05-27T09:42:18.887Z,32.68
2018-05-27T09:44:47.139Z,30.22
2018-05-27T09:47:16.166Z,30.63
2018-05-27T09:49:44.426Z,30.44
2018-05-27T09:52:13.459Z,31.10
2018-05-27T09:54:41.712Z,31.66
2018-05-27T09:57:10.198Z,31.29
2018-05-27T09:59:39.046Z,31.21
2018-05-27T10:02:08.116Z,33.58
2018-05-27T10:04:36.476Z,33.37
2018-05-27T10:07:04.739Z,32.58
2018-05-27T10:09:32.995Z,31.83
2018-05-27T10:12:02.037Z,31.63
2018-05-27T10:14:30.303Z,30.95
2018-05-27T10:16:58.566Z,31.42
2018-05-27T10:19:27.604Z,32.26
2018-05-27T10:21:56.115Z,31.98
2018-05-27T10:24:24.374Z,31.84
2018-05-27T10:26:52.623Z,33.15
2018-05-27T10:29:21.059Z,32.07
2018-05-27T10:31:49.336Z,33.01
2018-05-27T10:34:17.595Z,33.95
2018-05-27T10:36:45.871Z,34.93
2018-05-27T10:39:14.134Z,35.50
2018-05-27T10:41:43.159Z,34.68
2018-05-27T10:44:11.407Z,35.54
2018-05-27T10:46:39.675Z,35.10
2018-05-27T10:49:08.704Z,36.53
2018-05-27T10:51:36.969Z,35.84
2018-05-27T10:54:05.235Z,33.60
2018-05-27T10:56:35.183Z,31.87
2018-05-27T10:59:03.432Z,31.90
2018-05-27T11:01:34.495Z,33.16
2018-05-27T11:04:02.748Z,33.96
2018-05-27T11:06:31.789Z,34.24
2018-05-27T11:09:00.071Z,34.51
2018-05-27T11:11:28.331Z,31.61
2018-05-27T11:13:57.359Z,32.36
2018-05-27T11:16:25.625Z,32.94
2018-05-27T11:18:53.922Z,35.01
2018-05-27T11:21:22.163Z,31.16
2018-05-27T11:23:51.217Z,32.90
2018-05-27T11:26:19.451Z,30.62
2018-05-27T11:28:47.715Z,32.67
2018-05-27T11:31:16.830Z,31.88
2018-05-27T11:33:45.571Z,32.76
2018-05-27T11:36:13.824Z,29.86
2018-05-27T11:38:42.094Z,31.19
2018-05-27T11:41:10.357Z,33.15
2018-05-27T11:43:39.394Z,33.31
2018-05-27T11:46:07.650Z,31.57
2018-05-27T11:48:35.964Z,31.58
2018-05-27T11:51:04.940Z,30.52
2018-05-27T11:53:33.214Z,32.05
2018-05-27T11:56:01.469Z,34.27
2018-05-27T11:58:30.503Z,37.01
2018-05-27T12:00:58.756Z,37.29
2018-05-27T12:03:27.794Z,32.83
2018-05-27T12:05:56.045Z,33.47
2018-05-27T12:08:24.311Z,30.13
2018-05-27T12:10:53.567Z,28.55
2018-05-27T12:13:21.829Z,28.95
2018-05-27T12:15:50.078Z,28.50
2018-05-27T12:18:18.351Z,28.85
2018-05-27T12:20:47.379Z,28.83
2018-05-27T12:23:15.638Z,28.46
2018-05-27T12:25:43.920Z,27.67
2018-05-27T12:28:12.190Z,28.12
2018-05-27T12:30:41.211Z,28.08
2018-05-27T12:33:09.475Z,28.55
2018-05-27T12:35:38.492Z,27.41
2018-05-27T12:38:06.755Z,28.27
2018-05-27T12:40:35.024Z,28.78
2018-05-27T12:43:04.055Z,29.06
2018-05-27T12:45:32.314Z,28.94
2018-05-27T12:48:01.243Z,29.28
2018-05-27T12:50:29.594Z,29.55
2018-05-27T12:52:57.858Z,29.80
2018-05-27T12:55:26.886Z,30.11
2018-05-27T12:57:55.153Z,29.20
2018-05-27T13:00:23.416Z,28.13
2018-05-27T13:02:52.451Z,28.28
2018-05-27T13:05:20.699Z,29.64
2018-05-27T13:07:49.715Z,31.01
2018-05-27T13:10:17.988Z,31.44
2018-05-27T13:12:46.243Z,31.68
2018-05-27T13:15:15.282Z,31.57
2018-05-27T13:17:43.553Z,31.81
2018-05-27T13:20:11.815Z,31.49
2018-05-27T13:22:40.846Z,31.95
2018-05-27T13:25:09.116Z,31.77
2018-05-27T13:27:37.363Z,31.07
2018-05-27T13:30:05.709Z,30.76
2018-05-27T13:32:33.928Z,29.97
2018-05-27T13:35:02.963Z,29.43
2018-05-27T13:37:31.215Z,30.09
2018-05-27T13:40:00.247Z,30.91
2018-05-27T13:42:28.505Z,31.03
2018-05-27T13:44:56.808Z,29.38
2018-05-27T13:47:25.791Z,28.39
2018-05-27T13:49:54.067Z,28.85
2018-05-27T13:52:22.337Z,28.09
2018-05-27T13:54:51.359Z,28.22
2018-05-27T13:57:19.618Z,28.92
2018-05-27T13:59:47.899Z,29.25
2018-05-27T14:02:17.608Z,29.39
2018-05-27T14:04:46.769Z,28.99
2018-05-27T14:07:14.966Z,28.48
2018-05-27T14:09:44.009Z,28.57
2018-05-27T14:12:12.263Z,28.38
2018-05-27T14:14:41.291Z,28.10
2018-05-27T14:17:09.595Z,28.44
2018-05-27T14:19:38.574Z,28.46
2018-05-27T14:22:06.834Z,28.12
2018-05-27T14:24:35.107Z,27.91
2018-05-27T14:27:03.363Z,28.18
2018-05-27T14:29:31.633Z,28.32
2018-05-27T14:31:59.891Z,27.89
2018-05-27T14:34:28.221Z,27.88
2018-05-27T14:36:57.248Z,27.22
2018-05-27T14:39:25.514Z,27.20
2018-05-27T14:41:53.762Z,27.39
2018-05-27T14:44:22.811Z,27.34
2018-05-27T14:46:51.061Z,27.36
2018-05-27T14:49:20.092Z,26.80
2018-05-27T14:51:48.343Z,26.60
2018-05-27T14:54:16.632Z,26.45
2018-05-27T14:56:45.647Z,26.41
2018-05-27T14:59:13.920Z,26.43
2018-05-27T15:01:42.174Z,26.71
2018-05-27T15:04:11.229Z,26.89
2018-05-27T15:06:40.174Z,27.03
2018-05-27T15:09:09.211Z,26.81
2018-05-27T15:11:37.467Z,26.78
2018-05-27T15:14:06.023Z,26.95
2018-05-27T15:16:34.289Z,26.83
2018-05-27T15:19:03.323Z,26.22
2018-05-27T15:21:31.587Z,26.33
2018-05-27T15:24:00.603Z,26.61
2018-05-27T15:26:28.880Z,26.75
2018-05-27T15:28:57.915Z,26.83
2018-05-27T15:31:26.174Z,26.84
2018-05-27T15:33:54.455Z,26.86
2018-05-27T15:36:23.460Z,26.45
2018-05-27T15:38:53.879Z,26.28
2018-05-27T15:41:22.964Z,26.33
2018-05-27T15:43:51.987Z,26.40
2018-05-27T15:46:20.251Z,26.39
2018-05-27T15:48:48.498Z,26.55
2018-05-27T15:51:17.532Z,26.35
2018-05-27T15:53:45.809Z,25.95
2018-05-27T15:56:14.814Z,25.74
2018-05-27T15:58:43.082Z,25.77
2018-05-27T16:01:11.350Z,25.72
2018-05-27T16:03:40.373Z,26.53
2018-05-27T16:06:08.642Z,26.49
2018-05-27T16:08:36.899Z,26.99
2018-05-27T16:11:05.935Z,26.88
2018-05-27T16:13:34.187Z,26.49
2018-05-27T16:16:03.212Z,26.60
2018-05-27T16:18:31.489Z,26.82
2018-05-27T16:20:59.766Z,26.89
2018-05-27T16:23:28.011Z,27.05
2018-05-27T16:25:57.059Z,27.07
2018-05-27T16:28:25.327Z,27.24
2018-05-27T16:30:53.597Z,27.14
2018-05-27T16:33:21.851Z,27.26
2018-05-27T16:35:50.891Z,27.13
2018-05-27T16:38:19.155Z,27.22
2018-05-27T16:40:47.488Z,26.66
2018-05-27T16:43:16.332Z,26.39
2018-05-27T16:45:44.632Z,26.32
2018-05-27T16:48:12.897Z,26.11
2018-05-27T16:50:42.197Z,26.00
2018-05-27T16:53:10.479Z,25.88
2018-05-27T16:55:38.747Z,25.84
2018-05-27T16:58:07.770Z,25.97
2018-05-27T17:00:36.034Z,25.94
2018-05-27T17:03:05.060Z,25.80
2018-05-27T17:05:33.328Z,25.63
2018-05-27T17:08:01.596Z,25.68
2018-05-27T17:10:29.854Z,25.82
2018-05-27T17:12:58.951Z,25.71
2018-05-27T17:15:29.662Z,25.67
2018-05-27T17:17:57.947Z,25.59
2018-05-27T17:20:26.232Z,25.51
2018-05-27T17:22:54.523Z,25.27
2018-05-27T17:25:22.782Z,25.12
2018-05-27T17:27:51.035Z,24.83
2018-05-27T17:30:19.290Z,24.80
2018-05-27T17:32:48.394Z,24.70
2018-05-27T17:35:16.652Z,24.52
2018-05-27T17:37:45.691Z,24.76
2018-05-27T17:40:13.940Z,24.50
2018-05-27T17:42:42.966Z,24.31
2018-05-27T17:45:11.219Z,24.19
2018-05-27T17:47:41.692Z,24.13
2018-05-27T17:50:09.937Z,24.03
2018-05-27T17:52:39.041Z,23.97
2018-05-27T17:55:07.291Z,23.87
2018-05-27T17:57:36.327Z,23.79
2018-05-27T18:00:04.602Z,23.66
2018-05-27T18:02:32.864Z,23.59
2018-05-27T18:05:01.879Z,23.43
2018-05-27T18:07:30.137Z,23.34
2018-05-27T18:09:59.559Z,23.33
2018-05-27T18:12:27.826Z,23.21
2018-05-27T18:14:56.857Z,23.07
2018-05-27T18:17:25.115Z,22.92
2018-05-27T18:19:54.222Z,22.67
2018-05-27T18:22:22.497Z,22.44
2018-05-27T18:24:51.599Z,22.32
2018-05-27T18:27:20.632Z,22.24
2018-05-27T18:29:48.895Z,22.12
2018-05-27T18:32:17.159Z,22.03
2018-05-27T18:34:45.415Z,21.96
2018-05-27T18:37:15.195Z,21.82
2018-05-27T18:39:43.553Z,21.87
2018-05-27T18:42:11.820Z,21.82
2018-05-27T18:44:40.072Z,21.67
2018-05-27T18:47:09.099Z,21.22
2018-05-27T18:49:37.356Z,20.73
2018-05-27T18:52:05.883Z,20.50
2018-05-27T18:54:34.139Z,20.25
2018-05-27T18:57:02.403Z,20.32
2018-05-27T18:59:31.508Z,20.64
2018-05-27T19:02:00.541Z,20.40
2018-05-27T19:04:28.792Z,20.46
2018-05-27T19:06:57.822Z,19.80
2018-05-27T19:09:26.076Z,19.39
2018-05-27T19:11:54.347Z,19.17
2018-05-27T19:14:23.293Z,19.05
2018-05-27T19:16:51.563Z,18.96
2018-05-27T19:19:20.633Z,18.78
2018-05-27T19:21:48.903Z,18.63
2018-05-27T19:24:18.014Z,18.46
2018-05-27T19:26:46.548Z,18.40
2018-05-27T19:29:14.815Z,18.86
2018-05-27T19:31:43.068Z,18.92
2018-05-27T19:34:11.338Z,18.53
2018-05-27T19:36:39.599Z,18.36
2018-05-27T19:39:09.354Z,18.12
2018-05-27T19:41:37.618Z,17.93
2018-05-27T19:44:05.886Z,18.12
2018-05-27T19:46:34.919Z,17.91
2018-05-27T19:49:03.195Z,17.72
2018-05-27T19:51:32.271Z,17.55
2018-05-27T19:54:01.376Z,17.49
2018-05-27T19:56:29.627Z,17.40
2018-05-27T19:58:59.394Z,17.30
2018-05-27T20:01:28.163Z,17.23
2018-05-27T20:03:56.438Z,17.14
2018-05-27T20:06:25.455Z,17.09
2018-05-27T20:08:53.720Z,17.05
2018-05-27T20:11:21.974Z,16.99
2018-05-27T20:13:51.015Z,16.88
2018-05-27T20:16:19.275Z,16.84
2018-05-27T20:18:48.904Z,16.72
2018-05-27T20:21:17.154Z,16.63
2018-05-27T20:23:46.184Z,17.02
2018-05-27T20:26:14.431Z,16.76
2018-05-27T20:28:43.466Z,16.68
2018-05-27T20:31:11.722Z,16.60
2018-05-27T20:33:40.015Z,16.56
2018-05-27T20:36:08.258Z,16.80
2018-05-27T20:38:37.300Z,16.42
2018-05-27T20:41:05.556Z,16.22
2018-05-27T20:43:34.671Z,16.07
2018-05-27T20:46:02.919Z,15.97
2018-05-27T20:48:31.947Z,15.88
2018-05-27T20:51:00.211Z,15.77
2018-05-27T20:53:29.243Z,15.79
2018-05-27T20:55:57.502Z,15.78
2018-05-27T20:58:25.771Z,15.73
2018-05-27T21:00:54.801Z,15.77
2018-05-27T21:03:23.074Z,15.73
2018-05-27T21:05:51.331Z,15.76
2018-05-27T21:08:20.366Z,15.70
2018-05-27T21:10:48.616Z,15.70
2018-05-27T21:13:17.650Z,15.69
2018-05-27T21:15:45.909Z,15.66
2018-05-27T21:18:14.180Z,15.61
2018-05-27T21:20:42.430Z,15.73
2018-05-27T21:23:11.939Z,15.50
2018-05-27T21:25:40.963Z,15.37
2018-05-27T21:28:09.987Z,15.59
2018-05-27T21:30:38.347Z,15.56
2018-05-27T21:33:07.365Z,15.37
2018-05-27T21:35:35.641Z,15.64
2018-05-27T21:38:03.898Z,15.45
2018-05-27T21:40:32.940Z,15.24
2018-05-27T21:43:01.293Z,15.13
2018-05-27T21:45:29.547Z,15.01
2018-05-27T21:47:58.574Z,14.91
2018-05-27T21:50:26.826Z,14.85
2018-05-27T21:52:55.859Z,15.21
2018-05-27T21:55:24.119Z,14.99
2018-05-27T21:57:52.383Z,14.73
2018-05-27T22:00:21.402Z,14.57
2018-05-27T22:02:49.667Z,14.71
2018-05-27T22:05:18.689Z,14.84
2018-05-27T22:07:46.947Z,14.71
2018-05-27T22:10:15.982Z,14.35
2018-05-27T22:12:44.230Z,14.15
2018-05-27T22:15:12.504Z,14.10
2018-05-27T22:17:41.535Z,14.09
2018-05-27T22:20:09.804Z,14.06
2018-05-27T22:22:38.065Z,13.96
2018-05-27T22:25:07.257Z,13.93
2018-05-27T22:27:35.976Z,13.86
2018-05-27T22:30:04.234Z,14.19
2018-05-27T22:32:33.650Z,14.15
2018-05-27T22:35:02.669Z,13.90
2018-05-27T22:37:30.928Z,13.80
2018-05-27T22:39:59.955Z,13.83
2018-05-27T22:42:28.227Z,13.76
2018-05-27T22:44:56.487Z,13.76
2018-05-27T22:47:25.591Z,13.77
2018-05-27T22:49:53.859Z,13.70
2018-05-27T22:52:22.882Z,13.83
2018-05-27T22:54:51.156Z,13.79
2018-05-27T22:57:19.401Z,13.66
2018-05-27T22:59:48.440Z,13.60
2018-05-27T23:02:17.219Z,13.47
2018-05-27T23:04:45.488Z,13.40
2018-05-27T23:07:14.515Z,13.30
2018-05-27T23:09:42.775Z,13.34
2018-05-27T23:12:11.799Z,13.24
2018-05-27T23:14:40.072Z,13.19
2018-05-27T23:17:08.327Z,13.08
2018-05-27T23:19:37.356Z,13.01
2018-05-27T23:22:06.218Z,13.02
2018-05-27T23:24:35.251Z,12.95
2018-05-27T23:27:03.502Z,12.92
2018-05-27T23:29:31.786Z,12.87
2018-05-27T23:32:00.056Z,12.84
2018-05-27T23:34:29.087Z,12.95
2018-05-27T23:36:57.345Z,13.14
2018-05-27T23:39:25.665Z,13.23
2018-05-27T23:41:53.912Z,13.33
2018-05-27T23:44:22.184Z,13.25
2018-05-27T23:46:51.206Z,12.81
2018-05-27T23:49:19.467Z,12.63
2018-05-27T23:51:47.737Z,12.56
2018-05-27T23:54:18.071Z,12.51
2018-05-27T23:56:47.104Z,12.47
2018-05-27T23:59:15.366Z,12.46
